createdAt,value
2023-02-02T00:00:02.038Z,100842.50
2023-02-02T00:02:05.449Z,100851.19
2023-02-02T00:04:08.642Z,100844.31
2023-02-02T00:06:12.036Z,100863.38
2023-02-02T00:08:15.147Z,100849.50
2023-02-02T00:10:18.791Z,100849.50
2023-02-02T00:12:23.183Z,100846.91
2023-02-02T00:14:26.660Z,100861.69
2023-02-02T00:16:41.870Z,100848.72
2023-02-02T00:18:44.861Z,100856.50
2023-02-02T00:20:49.424Z,100876.38
2023-02-02T00:22:52.476Z,100870.41
2023-02-02T00:24:55.488Z,100865.28
2023-02-02T00:27:00.442Z,100871.41
2023-02-02T00:29:06.427Z,100882.69
2023-02-02T00:31:09.547Z,100874.06
2023-02-02T00:33:12.677Z,100887.03
2023-02-02T00:35:16.615Z,100887.94
2023-02-02T00:37:19.741Z,100889.69
2023-02-02T00:39:26.069Z,100893.13
2023-02-02T00:41:29.091Z,100900.91
2023-02-02T00:43:32.178Z,100903.50
2023-02-02T00:45:35.847Z,100911.25
2023-02-02T00:47:39.028Z,100912.09
2023-02-02T00:49:42.935Z,100918.13
2023-02-02T00:51:45.960Z,100908.59
2023-02-02T00:53:50.399Z,100912.09
2023-02-02T00:55:54.533Z,100924.16
2023-02-02T00:57:57.554Z,100929.34
2023-02-02T01:00:00.732Z,100925.06
2023-02-02T01:02:05.099Z,100937.19
2023-02-02T01:04:08.404Z,100933.75
2023-02-02T01:06:11.775Z,100931.16
2023-02-02T01:08:14.815Z,100928.63
2023-02-02T01:10:19.765Z,100926.09
2023-02-02T01:12:22.860Z,100931.41
2023-02-02T01:14:26.520Z,100922.03
2023-02-02T01:16:32.111Z,100929.94
2023-02-02T01:18:36.723Z,100927.53
2023-02-02T01:20:39.760Z,100942.38
2023-02-02T01:22:42.798Z,100932.19
2023-02-02T01:24:45.950Z,100951.31
2023-02-02T01:26:49.121Z,100948.81
2023-02-02T01:28:52.221Z,100952.28
2023-02-02T01:30:56.885Z,100960.91
2023-02-02T01:32:59.925Z,100958.31
2023-02-02T01:35:04.427Z,100981.59
2023-02-02T01:37:07.561Z,100963.38
2023-02-02T01:39:10.623Z,100954.69
2023-02-02T01:41:16.652Z,100967.63
2023-02-02T01:43:24.120Z,100975.25
2023-02-02T01:45:29.582Z,100975.19
2023-02-02T01:47:36.371Z,100971.75
2023-02-02T01:49:41.194Z,100983.88
2023-02-02T01:51:50.293Z,100995.25
2023-02-02T01:53:56.124Z,101029.94
2023-02-02T01:56:00.146Z,100994.53
2023-02-02T01:58:05.927Z,101009.34
2023-02-02T02:00:12.269Z,101008.63
2023-02-02T02:02:18.303Z,101006.19
2023-02-02T02:04:22.096Z,101024.50
2023-02-02T02:06:26.219Z,101026.31
2023-02-02T02:08:35.016Z,101014.38
2023-02-02T02:10:38.482Z,101024.88
2023-02-02T02:12:41.571Z,101020.59
2023-02-02T02:15:06.723Z,101039.63
2023-02-02T02:17:22.938Z,101038.84
2023-02-02T02:20:19.369Z,101039.69
2023-02-02T02:22:40.845Z,101042.34
2023-02-02T02:25:33.712Z,101052.72
2023-02-02T02:28:19.232Z,101049.31
2023-02-02T02:30:49.477Z,101056.31
2023-02-02T02:33:01.683Z,101056.41
2023-02-02T02:35:13.272Z,101070.38
2023-02-02T02:37:24.854Z,101051.44
2023-02-02T02:39:33.440Z,101048.97
2023-02-02T02:41:42.675Z,101050.81
2023-02-02T02:43:53.926Z,101057.81
2023-02-02T02:45:57.655Z,101056.97
2023-02-02T02:48:04.357Z,101060.34
2023-02-02T02:50:08.608Z,101063.78
2023-02-02T02:52:11.772Z,101070.63
2023-02-02T02:54:18.190Z,101071.38
2023-02-02T02:56:33.098Z,101067.91
2023-02-02T02:58:46.588Z,101060.06
2023-02-02T03:01:01.183Z,101061.69
2023-02-02T03:03:12.217Z,101064.19
2023-02-02T03:05:29.060Z,101064.09
2023-02-02T03:07:39.511Z,101066.59
2023-02-02T03:09:45.684Z,101075.16
2023-02-02T03:11:48.825Z,101076.00
2023-02-02T03:13:51.969Z,101083.75
2023-02-02T03:15:55.359Z,101085.44
2023-02-02T03:17:58.395Z,101099.19
2023-02-02T03:20:02.812Z,101105.22
2023-02-02T03:22:05.940Z,101090.50
2023-02-02T03:24:09.300Z,101103.44
2023-02-02T03:26:12.456Z,101110.38
2023-02-02T03:28:17.644Z,101106.88
2023-02-02T03:30:21.333Z,101114.66
2023-02-02T03:32:24.496Z,101112.97
2023-02-02T03:34:27.515Z,101121.66
2023-02-02T03:36:31.932Z,101114.75
2023-02-02T03:38:35.066Z,101111.38
2023-02-02T03:40:38.083Z,101118.34
2023-02-02T03:42:41.237Z,101122.75
2023-02-02T03:44:44.275Z,101146.19
2023-02-02T03:46:47.366Z,101133.28
2023-02-02T03:48:50.401Z,101132.44
2023-02-02T03:50:53.758Z,101143.75
2023-02-02T03:52:58.182Z,101148.09
2023-02-02T03:55:01.575Z,101147.28
2023-02-02T03:57:04.683Z,101158.56
2023-02-02T03:59:07.742Z,101153.47
2023-02-02T04:01:14.299Z,101156.97
2023-02-02T04:03:17.342Z,101165.72
2023-02-02T04:05:20.421Z,101157.94
2023-02-02T04:07:23.495Z,101163.97
2023-02-02T04:09:28.085Z,101161.38
2023-02-02T04:11:31.466Z,101162.16
2023-02-02T04:13:34.497Z,101167.34
2023-02-02T04:15:37.512Z,101172.41
2023-02-02T04:17:40.576Z,101172.31
2023-02-02T04:19:43.647Z,101185.25
2023-02-02T04:21:46.807Z,101179.09
2023-02-02T04:23:50.025Z,101188.50
2023-02-02T04:25:54.712Z,101192.78
2023-02-02T04:27:57.773Z,101197.88
2023-02-02T04:30:00.829Z,101193.53
2023-02-02T04:32:03.915Z,101197.78
2023-02-02T04:34:06.947Z,101209.84
2023-02-02T04:36:10.179Z,101210.69
2023-02-02T04:38:13.271Z,101208.03
2023-02-02T04:40:16.384Z,101202.84
2023-02-02T04:42:20.821Z,101213.16
2023-02-02T04:44:23.900Z,101216.59
2023-02-02T04:46:28.537Z,101228.66
2023-02-02T04:48:31.952Z,101213.94
2023-02-02T04:50:35.057Z,101216.50
2023-02-02T04:52:38.233Z,101211.31
2023-02-02T04:54:41.349Z,101217.41
2023-02-02T04:56:44.389Z,101213.91
2023-02-02T04:58:48.760Z,101214.69
2023-02-02T05:00:51.841Z,101231.13
2023-02-02T05:02:54.951Z,101228.47
2023-02-02T05:04:58.187Z,101231.06
2023-02-02T05:07:01.181Z,101221.50
2023-02-02T05:09:04.266Z,101237.06
2023-02-02T05:11:08.303Z,101229.22
2023-02-02T05:13:11.309Z,101227.53
2023-02-02T05:15:15.801Z,101226.63
2023-02-02T05:17:18.873Z,101224.88
2023-02-02T05:19:21.934Z,101224.88
2023-02-02T05:21:25.115Z,101231.78
2023-02-02T05:23:28.379Z,101224.88
2023-02-02T05:25:31.472Z,101228.28
2023-02-02T05:27:35.085Z,101233.53
2023-02-02T05:29:38.140Z,101243.00
2023-02-02T05:31:42.529Z,101243.84
2023-02-02T05:33:45.653Z,101243.84
2023-02-02T05:35:49.400Z,101276.69
2023-02-02T05:37:52.347Z,101264.50
2023-02-02T05:39:55.401Z,101266.22
2023-02-02T05:41:58.508Z,101281.72
2023-02-02T05:44:01.562Z,101269.59
2023-02-02T05:46:04.901Z,101271.31
2023-02-02T05:48:11.059Z,101271.31
2023-02-02T05:50:14.174Z,101273.00
2023-02-02T05:52:20.662Z,101279.88
2023-02-02T05:54:24.094Z,101276.38
2023-02-02T05:56:27.223Z,101284.94
2023-02-02T05:58:30.280Z,101291.84
2023-02-02T06:00:33.371Z,101295.28
2023-02-02T06:02:36.375Z,101303.00
2023-02-02T06:04:40.982Z,101295.22
2023-02-02T06:06:44.141Z,101291.72
2023-02-02T06:08:47.210Z,101290.88
2023-02-02T06:10:50.263Z,101303.81
2023-02-02T06:12:53.314Z,101295.19
2023-02-02T06:14:56.398Z,101305.50
2023-02-02T06:16:59.487Z,101309.84
2023-02-02T06:19:02.611Z,101315.91
2023-02-02T06:21:08.195Z,101309.81
2023-02-02T06:23:11.197Z,101304.66
2023-02-02T06:25:14.219Z,101314.19
2023-02-02T06:27:17.271Z,101301.22
2023-02-02T06:29:20.320Z,101303.81
2023-02-02T06:31:23.579Z,101318.59
2023-02-02T06:33:26.701Z,101316.00
2023-02-02T06:35:29.832Z,101326.38
2023-02-02T06:37:35.200Z,101331.56
2023-02-02T06:39:38.264Z,101333.25
2023-02-02T06:41:41.532Z,101341.06
2023-02-02T06:43:44.590Z,101354.88
2023-02-02T06:45:47.701Z,101353.19
2023-02-02T06:47:50.764Z,101350.63
2023-02-02T06:49:53.818Z,101358.47
2023-02-02T06:51:56.923Z,101345.56
2023-02-02T06:54:01.418Z,101357.75
2023-02-02T06:56:06.818Z,101353.44
2023-02-02T06:58:09.865Z,101359.53
2023-02-02T07:00:14.583Z,101363.84
2023-02-02T07:02:17.669Z,101373.41
2023-02-02T07:04:20.787Z,101370.81
2023-02-02T07:06:25.718Z,101368.22
2023-02-02T07:08:28.817Z,101377.75
2023-02-02T07:11:14.000Z,101387.28
2023-02-02T07:12:57.422Z,101392.47
2023-02-02T07:15:00.525Z,101390.72
2023-02-02T07:17:03.662Z,101399.38
2023-02-02T07:19:06.797Z,101395.03
2023-02-02T07:21:10.677Z,101407.94
2023-02-02T07:23:13.736Z,101412.28
2023-02-02T07:25:17.095Z,101404.56
2023-02-02T07:27:21.609Z,101406.34
2023-02-02T07:29:24.827Z,101408.97
2023-02-02T07:31:29.192Z,101416.81
2023-02-02T07:33:32.362Z,101413.41
2023-02-02T07:35:36.848Z,101416.91
2023-02-02T07:37:40.469Z,101418.69
2023-02-02T07:39:44.313Z,101423.03
2023-02-02T07:41:47.637Z,101421.28
2023-02-02T07:44:02.943Z,101424.72
2023-02-02T07:46:09.988Z,101425.59
2023-02-02T07:48:13.087Z,101431.66
2023-02-02T07:50:16.246Z,101436.81
2023-02-02T07:52:19.503Z,101441.97
2023-02-02T07:54:23.017Z,101441.06
2023-02-02T07:56:28.183Z,101447.97
2023-02-02T07:58:31.193Z,101446.16
2023-02-02T08:00:35.618Z,101451.28
2023-02-02T08:02:38.814Z,101458.13
2023-02-02T08:04:41.872Z,101454.56
2023-02-02T08:06:45.111Z,101464.97
2023-02-02T08:08:49.105Z,101459.78
2023-02-02T08:10:53.334Z,101466.63
2023-02-02T08:12:56.434Z,101461.44
2023-02-02T08:14:59.717Z,101472.75
2023-02-02T08:17:04.424Z,101475.34
2023-02-02T08:19:07.754Z,101486.63
2023-02-02T08:21:11.911Z,101493.56
2023-02-02T08:23:16.699Z,101494.50
2023-02-02T08:25:19.711Z,101490.16
2023-02-02T08:27:22.750Z,101509.97
2023-02-02T08:29:25.832Z,101497.00
2023-02-02T08:31:31.102Z,101513.31
2023-02-02T08:33:36.306Z,101515.84
2023-02-02T08:35:42.178Z,101517.53
2023-02-02T08:37:45.284Z,101523.47
2023-02-02T08:39:48.617Z,101516.44
2023-02-02T08:41:51.862Z,101523.28
2023-02-02T08:43:54.952Z,101523.28
2023-02-02T08:46:04.214Z,101523.28
2023-02-02T08:48:12.190Z,101514.69
2023-02-02T08:50:18.347Z,101517.28
2023-02-02T08:52:21.495Z,101525.09
2023-02-02T08:54:24.565Z,101537.16
2023-02-02T08:56:27.558Z,101532.84
2023-02-02T08:58:31.259Z,101535.38
2023-02-02T09:00:34.349Z,101537.88
2023-02-02T09:02:37.523Z,101540.28
2023-02-02T09:04:42.552Z,101550.41
2023-02-02T09:06:47.259Z,101548.44
2023-02-02T09:08:50.361Z,101549.13
2023-02-02T09:10:53.740Z,101551.66
2023-02-02T09:12:56.840Z,101563.66
2023-02-02T09:15:00.055Z,101543.69
2023-02-02T09:17:03.174Z,101546.25
2023-02-02T09:19:06.287Z,101553.19
2023-02-02T09:21:11.620Z,101565.41
2023-02-02T09:23:16.173Z,101569.88
2023-02-02T09:25:19.334Z,101571.66
2023-02-02T09:27:22.527Z,101582.09
2023-02-02T09:29:25.643Z,101581.25
2023-02-02T09:31:28.720Z,101590.75
2023-02-02T09:33:31.866Z,101590.72
2023-02-02T09:35:35.126Z,101588.97
2023-02-02T09:37:38.254Z,101595.00
2023-02-02T09:39:42.866Z,101593.22
2023-02-02T09:42:08.920Z,101594.88
2023-02-02T09:44:20.219Z,101599.94
2023-02-02T09:46:35.235Z,101608.50
2023-02-02T09:48:51.070Z,101617.91
2023-02-02T09:50:57.438Z,101613.50
2023-02-02T09:53:07.790Z,101606.53
2023-02-02T09:55:19.369Z,101613.34
2023-02-02T09:57:26.666Z,101613.25
2023-02-02T09:59:34.754Z,101614.06
2023-02-02T10:01:42.776Z,101623.44
2023-02-02T10:03:57.217Z,101622.38
2023-02-02T10:06:07.142Z,101622.16
2023-02-02T10:08:33.614Z,101631.47
2023-02-02T10:10:44.507Z,101627.84
2023-02-02T10:12:54.244Z,101636.34
2023-02-02T10:15:01.482Z,101634.47
2023-02-02T10:17:27.815Z,101640.38
2023-02-02T10:19:32.118Z,101642.78
2023-02-02T10:21:41.981Z,101639.19
2023-02-02T10:23:46.677Z,101645.13
2023-02-02T10:25:58.127Z,101645.75
2023-02-02T10:28:05.467Z,101649.09
2023-02-02T10:30:19.087Z,101657.66
2023-02-02T10:32:26.518Z,101667.97
2023-02-02T10:34:34.035Z,101666.09
2023-02-02T10:36:51.597Z,101676.41
2023-02-02T10:39:00.746Z,101679.69
2023-02-02T10:41:13.073Z,101686.50
2023-02-02T10:43:48.483Z,101694.06
2023-02-02T10:45:52.956Z,101689.47
2023-02-02T10:47:56.084Z,101684.97
2023-02-02T10:50:08.969Z,101690.88
2023-02-02T10:52:18.188Z,101694.19
2023-02-02T10:54:55.460Z,101690.56
2023-02-02T10:57:05.158Z,101699.28
2023-02-02T10:59:15.103Z,101697.69
2023-02-02T11:01:22.688Z,101701.19
2023-02-02T11:03:30.407Z,101713.25
2023-02-02T11:05:50.935Z,101706.19
2023-02-02T11:07:55.501Z,101714.69
2023-02-02T11:09:58.602Z,101713.78
2023-02-02T11:12:10.578Z,101705.97
2023-02-02T11:14:18.835Z,101715.41
2023-02-02T11:16:38.907Z,101711.06
2023-02-02T11:18:46.696Z,101700.63
2023-02-02T11:20:49.870Z,101707.44
2023-02-02T11:23:02.671Z,101707.34
2023-02-02T11:25:07.649Z,101710.81
2023-02-02T11:27:18.591Z,101716.81
2023-02-02T11:29:27.943Z,101718.47
2023-02-02T11:31:33.311Z,101716.75
2023-02-02T11:33:38.050Z,101722.97
2023-02-02T11:35:54.354Z,101723.13
2023-02-02T11:38:01.154Z,101719.69
2023-02-02T11:40:22.684Z,101724.69
2023-02-02T11:42:27.491Z,101726.16
2023-02-02T11:44:34.185Z,101721.47
2023-02-02T11:46:39.613Z,101722.91
2023-02-02T11:48:51.155Z,101720.94
2023-02-02T11:50:55.981Z,101726.88
2023-02-02T11:52:59.698Z,101727.53
2023-02-02T11:55:10.657Z,101727.25
2023-02-02T11:57:18.889Z,101716.50
2023-02-02T11:59:32.799Z,101729.25
2023-02-02T12:01:39.768Z,101715.16
2023-02-02T12:03:49.447Z,101725.47
2023-02-02T12:05:52.739Z,101725.47
2023-02-02T12:07:55.863Z,101729.16
2023-02-02T12:10:03.038Z,101724.22
2023-02-02T12:12:16.625Z,101731.47
2023-02-02T12:14:34.099Z,101728.22
2023-02-02T12:16:57.112Z,101733.53
2023-02-02T12:19:25.599Z,101739.00
2023-02-02T12:21:40.617Z,101739.13
2023-02-02T12:24:00.068Z,101736.56
2023-02-02T12:26:16.194Z,101739.13
2023-02-02T12:28:36.728Z,101739.66
2023-02-02T12:30:50.142Z,101737.56
2023-02-02T12:33:14.875Z,101738.22
2023-02-02T12:35:33.228Z,101740.66
2023-02-02T12:37:52.271Z,101737.00
2023-02-02T12:40:15.341Z,101735.84
2023-02-02T12:42:42.432Z,101738.28
2023-02-02T12:44:58.536Z,101740.78
2023-02-02T12:47:18.454Z,101733.75
2023-02-02T12:49:35.389Z,101738.06
2023-02-02T12:51:58.024Z,101740.69
2023-02-02T12:54:32.894Z,101746.84
2023-02-02T12:56:41.696Z,101749.53
2023-02-02T12:58:57.518Z,101749.53
2023-02-02T13:01:24.598Z,101746.91
2023-02-02T13:03:40.883Z,101743.47
2023-02-02T13:05:56.331Z,101746.84
2023-02-02T13:08:05.173Z,101748.28
2023-02-02T13:10:17.266Z,101744.50
2023-02-02T13:12:24.495Z,101747.72
2023-02-02T13:14:32.607Z,101750.16
2023-02-02T13:16:40.402Z,101756.97
2023-02-02T13:18:53.227Z,101745.72
2023-02-02T13:21:00.728Z,101751.13
2023-02-02T13:23:08.441Z,101753.19
2023-02-02T13:25:21.004Z,101750.03
2023-02-02T13:27:25.334Z,101744.88
2023-02-02T13:29:39.018Z,101750.50
2023-02-02T13:31:57.867Z,101758.53
2023-02-02T13:34:15.597Z,101756.22
2023-02-02T13:36:26.008Z,101764.34
2023-02-02T13:38:30.909Z,101757.00
2023-02-02T13:40:36.896Z,101754.84
2023-02-02T13:42:49.318Z,101764.94
2023-02-02T13:44:58.472Z,101770.03
2023-02-02T13:47:05.119Z,101761.41
2023-02-02T13:49:16.213Z,101758.13
2023-02-02T13:51:51.129Z,101760.88
2023-02-02T13:54:19.638Z,101772.34
2023-02-02T13:56:40.507Z,101774.16
2023-02-02T13:58:59.492Z,101783.03
2023-02-02T14:01:07.393Z,101772.84
2023-02-02T14:03:28.657Z,101777.53
2023-02-02T14:05:35.813Z,101770.00
2023-02-02T14:07:42.395Z,101773.72
2023-02-02T14:09:49.951Z,101775.53
2023-02-02T14:11:58.877Z,101780.06
2023-02-02T14:14:28.388Z,101773.47
2023-02-02T14:16:48.174Z,101779.22
2023-02-02T14:18:56.535Z,101780.53
2023-02-02T14:21:01.188Z,101780.81
2023-02-02T14:23:04.288Z,101782.75
2023-02-02T14:25:41.570Z,101779.44
2023-02-02T14:27:58.485Z,101787.59
2023-02-02T14:30:02.195Z,101788.66
2023-02-02T14:32:34.511Z,101793.22
2023-02-02T14:34:39.449Z,101783.88
2023-02-02T14:36:54.762Z,101794.41
2023-02-02T14:39:19.766Z,101796.25
2023-02-02T14:42:00.673Z,101802.41
2023-02-02T14:44:06.345Z,101806.78
2023-02-02T14:46:34.836Z,101806.78
2023-02-02T14:48:39.166Z,101814.53
2023-02-02T14:50:49.844Z,101822.31
2023-02-02T14:53:03.955Z,101815.50
2023-02-02T14:55:17.527Z,101829.53
2023-02-02T14:57:26.405Z,101827.13
2023-02-02T14:59:34.301Z,101841.22
2023-02-02T15:01:39.218Z,101837.06
2023-02-02T15:03:55.295Z,101836.38
2023-02-02T15:06:05.317Z,101837.44
2023-02-02T15:08:16.063Z,101844.50
2023-02-02T15:10:53.903Z,101849.00
2023-02-02T15:13:06.095Z,101843.09
2023-02-02T15:15:21.328Z,101847.56
2023-02-02T15:17:34.489Z,101852.13
2023-02-02T15:19:41.535Z,101847.00
2023-02-02T15:21:48.502Z,101853.22
2023-02-02T15:23:53.146Z,101857.72
2023-02-02T15:26:00.627Z,101855.25
2023-02-02T15:28:13.229Z,101863.22
2023-02-02T15:30:18.438Z,101866.81
2023-02-02T15:32:25.198Z,101867.00
2023-02-02T15:34:37.678Z,101875.78
2023-02-02T15:36:43.258Z,101878.63
2023-02-02T15:38:49.605Z,101881.38
2023-02-02T15:40:56.695Z,101883.28
2023-02-02T15:43:06.328Z,101882.50
2023-02-02T15:45:32.119Z,101890.50
2023-02-02T15:47:41.864Z,101888.88
2023-02-02T15:49:46.133Z,101891.69
2023-02-02T15:51:51.802Z,101900.47
2023-02-02T15:53:54.830Z,101894.53
2023-02-02T15:55:59.721Z,101906.78
2023-02-02T15:58:03.601Z,101905.16
2023-02-02T16:00:26.370Z,101904.47
2023-02-02T16:02:36.689Z,101908.94
2023-02-02T16:04:42.220Z,101909.94
2023-02-02T16:06:46.178Z,101910.06
2023-02-02T16:08:50.896Z,101926.63
2023-02-02T16:11:05.193Z,101929.34
2023-02-02T16:13:08.257Z,101928.59
2023-02-02T16:15:19.938Z,101934.75
2023-02-02T16:17:25.326Z,101937.44
2023-02-02T16:19:28.379Z,101937.50
2023-02-02T16:21:31.920Z,101934.19
2023-02-02T16:23:38.154Z,101935.94
2023-02-02T16:25:49.417Z,101944.72
2023-02-02T16:27:54.137Z,101945.66
2023-02-02T16:30:00.806Z,101941.41
2023-02-02T16:32:05.066Z,101947.53
2023-02-02T16:34:16.267Z,101941.53
2023-02-02T16:36:25.431Z,101946.78
2023-02-02T16:38:33.210Z,101939.91
2023-02-02T16:40:36.586Z,101944.28
2023-02-02T16:42:39.749Z,101943.47
2023-02-02T16:44:44.737Z,101943.50
2023-02-02T16:46:51.370Z,101938.38
2023-02-02T16:49:02.204Z,101938.41
2023-02-02T16:51:31.605Z,101938.56
2023-02-02T16:53:39.348Z,101945.53
2023-02-02T16:55:51.193Z,101938.72
2023-02-02T16:57:54.586Z,101943.97
2023-02-02T17:00:02.097Z,101949.22
2023-02-02T17:02:21.947Z,101945.88
2023-02-02T17:04:27.081Z,101948.53
2023-02-02T17:06:45.766Z,101950.38
2023-02-02T17:08:54.735Z,101949.59
2023-02-02T17:11:09.151Z,101954.81
2023-02-02T17:13:38.402Z,101956.59
2023-02-02T17:15:42.827Z,101960.97
2023-02-02T17:17:47.775Z,101956.69
2023-02-02T17:19:51.071Z,101961.09
2023-02-02T17:21:54.158Z,101960.28
2023-02-02T17:23:57.211Z,101956.03
2023-02-02T17:26:00.766Z,101956.06
2023-02-02T17:28:07.798Z,101955.25
2023-02-02T17:30:16.691Z,101958.75
2023-02-02T17:32:21.168Z,101956.19
2023-02-02T17:34:24.787Z,101955.28
2023-02-02T17:36:27.941Z,101950.97
2023-02-02T17:38:31.007Z,101955.25
2023-02-02T17:40:34.768Z,101950.94
2023-02-02T17:42:38.598Z,101952.59
2023-02-02T17:44:41.679Z,101945.66
2023-02-02T17:46:44.882Z,101943.06
2023-02-02T17:48:49.370Z,101939.59
2023-02-02T17:50:52.640Z,101936.13
2023-02-02T17:52:56.050Z,101948.19
2023-02-02T17:54:59.110Z,101939.53
2023-02-02T17:57:02.205Z,101944.72
2023-02-02T17:59:05.247Z,101940.38
2023-02-02T18:01:08.593Z,101951.63
2023-02-02T18:03:14.364Z,101955.09
2023-02-02T18:05:19.740Z,101953.41
2023-02-02T18:07:22.877Z,101950.81
2023-02-02T18:09:26.206Z,101942.13
2023-02-02T18:11:29.333Z,101941.31
2023-02-02T18:13:33.006Z,101943.00
2023-02-02T18:15:36.088Z,101948.19
2023-02-02T18:17:39.304Z,101943.00
2023-02-02T18:19:45.052Z,101936.97
2023-02-02T18:21:49.706Z,101939.53
2023-02-02T18:23:53.070Z,101941.25
2023-02-02T18:25:56.155Z,101937.75
2023-02-02T18:27:59.204Z,101940.31
2023-02-02T18:30:02.246Z,101941.16
2023-02-02T18:32:05.711Z,101944.59
2023-02-02T18:34:08.797Z,101939.41
2023-02-02T18:36:14.322Z,101946.31
2023-02-02T18:38:19.646Z,101935.94
2023-02-02T18:40:22.764Z,101935.03
2023-02-02T18:42:29.824Z,101928.97
2023-02-02T18:44:34.469Z,101930.66
2023-02-02T18:46:37.931Z,101925.47
2023-02-02T18:48:41.493Z,101917.66
2023-02-02T18:50:44.543Z,101916.75
2023-02-02T18:52:47.715Z,101917.56
2023-02-02T18:54:52.159Z,101917.53
2023-02-02T18:56:55.244Z,101914.00
2023-02-02T18:58:59.626Z,101917.44
2023-02-02T19:01:08.547Z,101920.84
2023-02-02T19:03:11.601Z,101913.03
2023-02-02T19:05:31.809Z,101919.03
2023-02-02T19:07:52.438Z,101893.03
2023-02-02T19:09:57.047Z,101881.72
2023-02-02T19:12:00.341Z,101884.28
2023-02-02T19:14:03.462Z,101884.25
2023-02-02T19:16:15.380Z,101881.66
2023-02-02T19:18:21.285Z,101878.19
2023-02-02T19:20:29.117Z,101874.69
2023-02-02T19:22:33.607Z,101873.75
2023-02-02T19:24:39.860Z,101878.97
2023-02-02T19:26:47.049Z,101874.56
2023-02-02T19:28:50.335Z,101872.81
2023-02-02T19:30:54.622Z,101872.78
2023-02-02T19:32:57.739Z,101876.19
2023-02-02T19:35:02.713Z,101864.88
2023-02-02T19:37:23.109Z,101860.50
2023-02-02T19:39:31.842Z,101851.81
2023-02-02T19:41:39.288Z,101852.63
2023-02-02T19:43:47.623Z,101850.03
2023-02-02T19:45:51.093Z,101851.75
2023-02-02T19:47:56.033Z,101851.75
2023-02-02T19:50:01.177Z,101846.56
2023-02-02T19:52:05.353Z,101847.44
2023-02-02T19:54:34.089Z,101845.72
2023-02-02T19:56:40.395Z,101837.94
2023-02-02T19:58:44.981Z,101843.13
2023-02-02T20:00:48.888Z,101837.97
2023-02-02T20:03:00.480Z,101846.63
2023-02-02T20:05:15.959Z,101841.44
2023-02-02T20:07:22.174Z,101845.78
2023-02-02T20:09:27.087Z,101847.47
2023-02-02T20:11:35.712Z,101842.28
2023-02-02T20:13:45.513Z,101849.22
2023-02-02T20:15:51.073Z,101836.22
2023-02-02T20:17:55.002Z,101838.00
2023-02-02T20:19:58.109Z,101835.38
2023-02-02T20:22:01.255Z,101822.44
2023-02-02T20:24:05.064Z,101822.44
2023-02-02T20:26:24.173Z,101807.75
2023-02-02T20:28:43.252Z,101812.03
2023-02-02T20:30:46.368Z,101812.03
2023-02-02T20:32:55.152Z,101814.72
2023-02-02T20:35:00.007Z,101812.16
2023-02-02T20:37:06.738Z,101818.19
2023-02-02T20:39:30.580Z,101813.03
2023-02-02T20:41:33.640Z,101807.84
2023-02-02T20:43:36.840Z,101806.16
2023-02-02T20:45:40.092Z,101808.75
2023-02-02T20:47:43.310Z,101803.59
2023-02-02T20:49:48.554Z,101802.69
2023-02-02T20:51:51.907Z,101793.25
2023-02-02T20:53:56.619Z,101793.25
2023-02-02T20:56:02.133Z,101781.16
2023-02-02T20:58:05.564Z,101780.34
2023-02-02T21:00:11.123Z,101782.06
2023-02-02T21:02:19.058Z,101781.22
2023-02-02T21:04:23.070Z,101772.63
2023-02-02T21:06:28.777Z,101774.31
2023-02-02T21:08:33.154Z,101767.44
2023-02-02T21:10:36.213Z,101761.38
2023-02-02T21:12:40.259Z,101757.94
2023-02-02T21:14:45.013Z,101757.97
2023-02-02T21:16:48.270Z,101751.91
2023-02-02T21:18:51.823Z,101751.91
2023-02-02T21:20:54.928Z,101745.03
2023-02-02T21:22:59.565Z,101736.44
2023-02-02T21:25:02.610Z,101746.84
2023-02-02T21:27:05.781Z,101741.69
2023-02-02T21:29:08.968Z,101739.13
2023-02-02T21:31:14.877Z,101742.63
2023-02-02T21:33:18.054Z,101741.88
2023-02-02T21:35:21.141Z,101754.88
2023-02-02T21:37:24.197Z,101752.34
2023-02-02T21:39:31.667Z,101741.13
2023-02-02T21:41:34.838Z,101749.00
2023-02-02T21:43:38.543Z,101744.69
2023-02-02T21:45:43.928Z,101742.09
2023-02-02T21:47:54.978Z,101737.81
2023-02-02T21:50:00.227Z,101737.81
2023-02-02T21:52:13.540Z,101723.13
2023-02-02T21:54:22.066Z,101726.59
2023-02-02T21:56:29.227Z,101719.72
2023-02-02T21:58:35.090Z,101714.53
2023-02-02T22:00:38.820Z,101710.22
2023-02-02T22:02:45.198Z,101706.78
2023-02-02T22:04:48.365Z,101687.75
2023-02-02T22:06:53.555Z,101685.16
2023-02-02T22:09:02.234Z,101671.38
2023-02-02T22:11:06.678Z,101659.28
2023-02-02T22:13:18.820Z,101655.00
2023-02-02T22:15:23.362Z,101646.34
2023-02-02T22:17:30.281Z,101640.34
2023-02-02T22:19:35.316Z,101636.06
2023-02-02T22:21:38.324Z,101636.91
2023-02-02T22:23:41.448Z,101634.31
2023-02-02T22:25:46.430Z,101636.00
2023-02-02T22:27:51.745Z,101617.00
2023-02-02T22:30:03.571Z,101623.88
2023-02-02T22:32:06.626Z,101619.56
2023-02-02T22:34:09.709Z,101603.97
2023-02-02T22:36:12.858Z,101598.78
2023-02-02T22:38:18.927Z,101598.72
2023-02-02T22:40:23.354Z,101602.19
2023-02-02T22:42:26.462Z,101614.28
2023-02-02T22:44:29.527Z,101598.72
2023-02-02T22:46:34.009Z,101603.00
2023-02-02T22:48:37.187Z,101602.13
2023-02-02T22:50:41.036Z,101595.16
2023-02-02T22:52:44.348Z,101590.78
2023-02-02T22:54:47.347Z,101576.00
2023-02-02T22:56:50.383Z,101568.22
2023-02-02T22:58:53.416Z,101567.34
2023-02-02T23:00:56.452Z,101568.19
2023-02-02T23:03:01.172Z,101561.22
2023-02-02T23:05:04.330Z,101563.75
2023-02-02T23:07:07.370Z,101560.28
2023-02-02T23:09:10.410Z,101553.28
2023-02-02T23:11:13.457Z,101542.91
2023-02-02T23:13:16.517Z,101543.75
2023-02-02T23:15:19.744Z,101529.88
2023-02-02T23:17:23.005Z,101528.16
2023-02-02T23:19:27.416Z,101520.25
2023-02-02T23:21:30.548Z,101514.13
2023-02-02T23:23:33.758Z,101514.97
2023-02-02T23:25:36.818Z,101507.13
2023-02-02T23:27:40.319Z,101505.34
2023-02-02T23:29:43.422Z,101498.38
2023-02-02T23:31:46.560Z,101492.22
2023-02-02T23:33:49.626Z,101479.22
2023-02-02T23:35:54.158Z,101488.66
2023-02-02T23:37:57.179Z,101490.34
2023-02-02T23:40:00.247Z,101491.16
2023-02-02T23:42:03.274Z,101478.09
2023-02-02T23:44:06.601Z,101476.28
2023-02-02T23:46:09.831Z,101479.66
2023-02-02T23:48:13.120Z,101477.88
2023-02-02T23:50:16.404Z,101471.72
2023-02-02T23:52:21.160Z,101475.97
2023-02-02T23:54:24.336Z,101484.56
2023-02-02T23:56:27.779Z,101481.88
2023-02-02T23:58:30.861Z,101480.09
